Time;durP1;ratioP1;P1;durP2;ratioP2;P2;SDS_P1;SDS_P2;PMS_P1;PMS_P2;Temp;Humidity;BMP_temperature;BMP_pressure;BME280_temperature;BME280_humidity;BME280_pressure;Samples;Min_cycle;Max_cycle;Signal;HPM_P1;HPM_P2
2023/01/23 00:00:59;;;;;;;12.97;6.63;;;;;;;9.78;100.00;95047.03;6298800;22;20218;-75
2023/01/23 00:03:26;;;;;;;10.63;6.47;;;;;;;9.79;100.00;95043.41;6281930;22;20268;-75
2023/01/23 00:05:57;;;;;;;9.83;6.70;;;;;;;9.69;100.00;95036.06;6295234;22;20184;-75
2023/01/23 00:08:24;;;;;;;10.30;6.50;;;;;;;9.73;100.00;95043.41;6298233;22;20813;-76
2023/01/23 00:10:50;;;;;;;11.03;7.00;;;;;;;9.68;100.00;95054.44;6298250;22;20652;-76
2023/01/23 00:13:19;;;;;;;13.63;7.03;;;;;;;9.64;100.00;95045.44;6298043;22;20172;-75
2023/01/23 00:15:46;;;;;;;11.57;7.17;;;;;;;9.82;100.00;95061.19;6299178;22;20164;-76
2023/01/23 00:18:13;;;;;;;10.27;7.00;;;;;;;9.85;100.00;95059.97;6297752;22;20207;-76
2023/01/23 00:20:41;;;;;;;11.93;7.03;;;;;;;9.84;100.00;95055.81;6297571;22;20533;-78
2023/01/23 00:23:08;;;;;;;9.57;6.30;;;;;;;9.84;100.00;95053.22;6299176;22;20168;-79
2023/01/23 00:25:36;;;;;;;8.57;5.93;;;;;;;9.66;100.00;95056.44;6298642;22;20172;-80
2023/01/23 00:28:03;;;;;;;9.00;6.43;;;;;;;9.60;100.00;95049.44;6297223;22;20509;-79
2023/01/23 00:30:32;;;;;;;12.20;6.33;;;;;;;9.67;100.00;95058.81;6299201;22;20504;-79
2023/01/23 00:32:58;;;;;;;12.30;7.00;;;;;;;9.58;100.00;95057.41;6300745;22;20191;-79
2023/01/23 00:35:25;;;;;;;10.20;6.93;;;;;;;9.58;100.00;95062.59;6299440;22;20163;-79
2023/01/23 00:37:52;;;;;;;10.17;6.70;;;;;;;9.65;100.00;95065.22;6298761;22;20175;-79
2023/01/23 00:40:19;;;;;;;12.93;7.00;;;;;;;9.66;100.00;95074.59;6299979;22;20171;-77
2023/01/23 00:42:46;;;;;;;9.17;7.20;;;;;;;9.59;100.00;95063.41;6296513;22;20222;-77
2023/01/23 00:45:12;;;;;;;13.17;7.40;;;;;;;9.61;100.00;95066.59;6298501;22;20168;-77
2023/01/23 00:47:41;;;;;;;11.90;6.70;;;;;;;9.50;100.00;95055.03;6299618;22;20541;-79
2023/01/23 00:50:09;;;;;;;10.30;6.97;;;;;;;9.53;100.00;95074.59;6297914;22;20172;-76
2023/01/23 00:52:36;;;;;;;11.50;7.07;;;;;;;9.56;100.00;95075.00;6298602;22;20172;-77
2023/01/23 00:55:03;;;;;;;10.27;6.63;;;;;;;9.60;100.00;95063.22;6298636;22;20549;-77
2023/01/23 00:57:30;;;;;;;8.57;6.63;;;;;;;9.59;100.00;95069.41;6296265;22;20168;-76
2023/01/23 00:59:56;;;;;;;8.30;6.10;;;;;;;9.57;100.00;95066.22;6298136;22;20639;-77
2023/01/23 01:02:23;;;;;;;9.07;6.90;;;;;;;9.63;100.00;95065.44;6299220;22;20634;-76
2023/01/23 01:04:51;;;;;;;8.17;6.27;;;;;;;9.64;100.00;95069.59;6298042;22;20186;-76
2023/01/23 01:07:18;;;;;;;9.37;6.63;;;;;;;9.66;100.00;95062.44;6297792;22;20195;-75
2023/01/23 01:09:45;;;;;;;7.70;5.60;;;;;;;9.72;100.00;95055.63;6299089;22;20168;-78
2023/01/23 01:12:12;;;;;;;9.53;6.27;;;;;;;9.70;100.00;95058.41;6298155;22;20696;-78
2023/01/23 01:14:39;;;;;;;8.03;5.80;;;;;;;9.54;100.00;95058.84;6298303;22;20179;-78
2023/01/23 01:17:06;;;;;;;7.93;6.10;;;;;;;9.61;100.00;95066.59;6299612;22;20569;-77
2023/01/23 01:19:33;;;;;;;11.23;6.43;;;;;;;9.51;100.00;95067.03;6298142;22;20191;-78
2023/01/23 01:22:01;;;;;;;12.03;6.50;;;;;;;9.49;100.00;95065.63;6298346;22;20183;-78
2023/01/23 01:24:28;;;;;;;9.87;6.23;;;;;;;9.49;100.00;95065.63;6298879;22;20176;-78
2023/01/23 01:26:55;;;;;;;8.80;5.63;;;;;;;9.53;100.00;95072.00;6297671;22;20188;-79
2023/01/23 01:29:21;;;;;;;10.60;5.90;;;;;;;9.52;100.00;95080.81;6299413;22;20215;-80
2023/01/23 01:31:48;;;;;;;8.77;5.93;;;;;;;9.46;100.00;95082.41;6300214;22;20175;-80
2023/01/23 01:34:15;;;;;;;7.70;5.60;;;;;;;9.50;100.00;95093.97;6298643;22;20613;-80
2023/01/23 01:36:42;;;;;;;14.40;6.57;;;;;;;9.44;100.00;95099.94;6299561;22;20168;-79
2023/01/23 01:39:10;;;;;;;9.90;6.20;;;;;;;9.43;100.00;95102.75;6301868;22;20172;-79
2023/01/23 01:41:37;;;;;;;10.67;6.07;;;;;;;9.43;100.00;95094.97;6300315;22;20175;-79
2023/01/23 01:44:04;;;;;;;9.60;6.00;;;;;;;9.51;100.00;95092.97;6300585;22;20172;-79
2023/01/23 01:46:31;;;;;;;7.10;5.10;;;;;;;9.52;100.00;95078.19;6300578;22;20188;-78
2023/01/23 01:49:30;;;;;;;11.53;6.00;;;;;;;9.62;100.00;95078.59;6299489;22;20168;-79
2023/01/23 01:52:00;;;;;;;8.23;5.37;;;;;;;9.54;100.00;95087.38;6298329;22;20168;-75
2023/01/23 01:54:32;;;;;;;8.20;5.23;;;;;;;9.52;100.00;95080.81;6301613;22;20161;-75
2023/01/23 01:57:04;;;;;;;6.47;4.37;;;;;;;9.48;100.00;95084.78;6299511;22;20630;-75
2023/01/23 01:59:36;;;;;;;10.13;5.13;;;;;;;9.45;100.00;95090.38;6298065;22;20157;-75
2023/01/23 02:02:08;;;;;;;7.90;5.10;;;;;;;9.48;100.00;95092.56;6300474;22;20492;-75
2023/01/23 02:05:11;;;;;;;6.97;4.83;;;;;;;9.46;100.00;95094.56;6300598;22;20906;-76
2023/01/23 02:07:46;;;;;;;7.10;4.70;;;;;;;9.48;100.00;95095.16;6203388;22;20196;-79
2023/01/23 02:10:15;;;;;;;7.43;4.93;;;;;;;9.53;100.00;95097.94;6300296;22;20171;-79
2023/01/23 02:12:46;;;;;;;9.40;5.07;;;;;;;9.38;100.00;95067.00;6301680;22;20662;-79
2023/01/23 02:15:13;;;;;;;9.00;5.30;;;;;;;9.50;100.00;95090.56;6300100;22;20172;-79
2023/01/23 02:17:39;;;;;;;7.60;5.00;;;;;;;9.49;100.00;95097.56;6299888;22;20666;-79
2023/01/23 02:20:17;;;;;;;7.67;5.23;;;;;;;9.45;100.00;95092.97;6299861;22;20172;-79
2023/01/23 02:22:52;;;;;;;8.43;5.37;;;;;;;9.46;100.00;95092.78;6299406;22;20157;-79
2023/01/23 02:25:26;;;;;;;6.47;4.47;;;;;;;9.42;100.00;95094.16;6296903;22;20159;-79
2023/01/23 02:27:55;;;;;;;7.67;4.90;;;;;;;9.39;100.00;95089.38;6297928;22;20183;-79
2023/01/23 02:30:22;;;;;;;6.40;4.40;;;;;;;9.36;100.00;95079.41;6299934;22;20173;-79
2023/01/23 02:32:49;;;;;;;7.20;4.50;;;;;;;9.46;100.00;95095.38;6299325;22;20160;-79
2023/01/23 02:35:22;;;;;;;7.67;4.33;;;;;;;9.34;100.00;95083.19;6300829;22;20557;-80
2023/01/23 02:37:54;;;;;;;8.20;4.43;;;;;;;9.32;100.00;95092.97;6302529;22;20221;-80
2023/01/23 02:40:31;;;;;;;6.73;4.60;;;;;;;9.34;100.00;95086.59;6299708;22;20156;-79
2023/01/23 02:43:00;;;;;;;7.23;4.83;;;;;;;9.35;100.00;95103.72;6299519;22;20160;-78
2023/01/23 02:45:27;;;;;;;6.57;4.60;;;;;;;9.33;100.00;95097.16;6301571;22;20164;-79
2023/01/23 02:47:54;;;;;;;8.10;4.57;;;;;;;9.35;100.00;95103.72;6298940;22;20242;-78
2023/01/23 02:50:20;;;;;;;6.10;4.30;;;;;;;9.35;100.00;95100.34;6299688;22;20172;-79
2023/01/23 02:52:49;;;;;;;6.83;4.23;;;;;;;9.27;100.00;95101.31;6301909;22;20241;-79
2023/01/23 02:55:16;;;;;;;5.93;4.40;;;;;;;9.24;100.00;95093.13;6300122;22;20217;-79
2023/01/23 02:57:44;;;;;;;7.57;4.33;;;;;;;9.22;100.00;95108.91;6299593;22;20794;-78
2023/01/23 03:00:16;;;;;;;7.70;4.20;;;;;;;9.19;100.00;95098.13;6301680;22;20191;-79
2023/01/23 03:02:43;;;;;;;7.57;4.60;;;;;;;9.20;100.00;95099.75;6299031;22;20172;-80
2023/01/23 03:05:10;;;;;;;8.03;4.80;;;;;;;9.12;100.00;95098.91;6299660;22;20168;-79
2023/01/23 03:07:37;;;;;;;5.90;4.60;;;;;;;9.12;100.00;95098.13;6302153;22;20218;-76
2023/01/23 03:10:06;;;;;;;6.47;4.50;;;;;;;9.15;100.00;95102.13;6298663;22;20233;-76
2023/01/23 03:12:33;;;;;;;6.77;3.93;;;;;;;9.15;100.00;95100.31;6298046;22;20164;-75
2023/01/23 03:15:00;;;;;;;7.03;4.47;;;;;;;9.06;100.00;95096.34;6300577;22;20175;-75
2023/01/23 03:17:29;;;;;;;5.40;4.03;;;;;;;9.04;100.00;95116.47;6298344;22;20191;-75
2023/01/23 03:19:56;;;;;;;5.03;3.67;;;;;;;9.01;100.00;95101.28;6298359;22;20246;-75
2023/01/23 03:22:23;;;;;;;4.60;3.67;;;;;;;9.01;100.00;95107.28;6300275;22;20639;-76
2023/01/23 03:24:50;;;;;;;5.67;4.00;;;;;;;9.04;100.00;95100.91;6298882;22;20247;-75
2023/01/23 03:27:17;;;;;;;5.20;3.80;;;;;;;8.97;100.00;95103.50;6298957;22;20188;-80
2023/01/23 03:32:29;;;;;;;6.07;3.73;;;;;;;9.06;100.00;95107.47;6299438;22;20246;-79
2023/01/23 03:34:56;;;;;;;4.60;3.60;;;;;;;9.16;100.00;95116.69;6299853;22;20171;-80
2023/01/23 03:37:24;;;;;;;4.23;3.50;;;;;;;9.17;100.00;95098.34;6301421;22;20169;-79
2023/01/23 03:42:35;;;;;;;4.43;3.80;;;;;;;9.13;100.00;95105.72;6297421;22;20167;-80
2023/01/23 03:45:02;;;;;;;4.97;3.77;;;;;;;9.12;100.00;95103.31;6298371;22;20576;-75
2023/01/23 03:47:30;;;;;;;5.87;4.07;;;;;;;9.11;100.00;95110.31;6299316;22;20196;-75
2023/01/23 03:49:57;;;;;;;5.80;3.90;;;;;;;9.12;100.00;95111.09;6297804;22;20172;-75
2023/01/23 03:52:24;;;;;;;4.97;3.83;;;;;;;9.13;100.00;95108.31;6298368;22;20176;-75
2023/01/23 03:54:51;;;;;;;6.63;3.93;;;;;;;9.07;100.00;95110.88;6299958;22;20175;-75
2023/01/23 03:57:17;;;;;;;5.67;4.10;;;;;;;9.09;100.00;95111.50;6298024;22;20708;-75
2023/01/23 03:59:44;;;;;;;6.03;3.70;;;;;;;9.03;100.00;95109.69;6298589;22;20771;-74
2023/01/23 04:02:11;;;;;;;7.00;4.57;;;;;;;9.08;100.00;95097.75;6293942;22;20171;-75
2023/01/23 04:04:40;;;;;;;7.37;4.63;;;;;;;9.05;100.00;95110.28;6273680;22;20171;-75
2023/01/23 04:07:07;;;;;;;6.37;4.53;;;;;;;8.97;100.00;95108.69;6281879;22;20195;-79
2023/01/23 04:09:33;;;;;;;6.10;4.50;;;;;;;8.86;100.00;95104.06;6301563;22;20601;-80
2023/01/23 04:12:00;;;;;;;6.33;4.40;;;;;;;8.87;100.00;95110.03;6299331;22;20248;-78
2023/01/23 04:14:34;;;;;;;9.93;4.70;;;;;;;8.87;100.00;95110.84;6297463;22;20168;-74
2023/01/23 04:17:00;;;;;;;7.43;5.23;;;;;;;8.81;100.00;95103.84;6298158;22;20223;-74
2023/01/23 04:19:27;;;;;;;8.40;5.30;;;;;;;8.82;100.00;95102.88;6297340;22;20164;-74
2023/01/23 04:21:55;;;;;;;7.97;5.50;;;;;;;8.79;100.00;95108.44;6297353;22;20643;-74
2023/01/23 04:24:22;;;;;;;7.27;4.77;;;;;;;8.71;100.00;95110.41;6298507;22;20183;-73
2023/01/23 04:26:49;;;;;;;7.10;4.97;;;;;;;8.58;100.00;95098.19;6297446;22;20175;-75
2023/01/23 04:29:16;;;;;;;6.83;4.50;;;;;;;8.72;100.00;95110.19;6298363;22;20579;-74
2023/01/23 04:31:43;;;;;;;6.63;4.43;;;;;;;8.68;100.00;95123.75;6299654;22;20171;-75
2023/01/23 04:34:10;;;;;;;6.83;4.80;;;;;;;8.68;100.00;95124.56;6297049;22;20176;-75
2023/01/23 04:36:37;;;;;;;5.27;4.33;;;;;;;8.61;100.00;95117.72;6297484;22;20490;-75
2023/01/23 04:39:05;;;;;;;7.87;4.73;;;;;;;8.73;100.00;95123.97;6299835;22;20171;-75
2023/01/23 04:41:33;;;;;;;6.93;4.63;;;;;;;8.69;100.00;95123.53;6297219;22;20176;-75
2023/01/23 04:44:18;;;;;;;7.87;4.60;;;;;;;8.70;100.00;95124.34;6297651;22;20522;-75
2023/01/23 04:46:45;;;;;;;8.53;4.53;;;;;;;8.71;100.00;95141.50;6300207;22;20556;-75
2023/01/23 04:49:13;;;;;;;7.53;4.23;;;;;;;8.71;100.00;95139.72;6298098;22;20188;-70
2023/01/23 04:51:39;;;;;;;5.30;3.60;;;;;;;8.71;100.00;95138.91;6297461;22;20175;-71
2023/01/23 04:54:07;;;;;;;4.77;3.60;;;;;;;8.70;100.00;95138.09;6299282;22;20262;-70
2023/01/23 04:56:34;;;;;;;4.67;3.37;;;;;;;8.67;100.00;95135.91;6297434;22;20219;-70
2023/01/23 04:59:01;;;;;;;4.77;3.27;;;;;;;8.67;100.00;95137.69;6297406;22;20184;-70
2023/01/23 05:01:28;;;;;;;5.90;3.37;;;;;;;8.67;100.00;95133.31;6298665;22;20172;-71
2023/01/23 05:03:55;;;;;;;7.07;3.50;;;;;;;8.68;100.00;95137.50;6295778;22;20175;-70
2023/01/23 05:06:21;;;;;;;4.67;3.57;;;;;;;8.72;100.00;95136.09;6295611;22;20644;-70
2023/01/23 05:08:49;;;;;;;6.87;3.80;;;;;;;8.66;100.00;95136.09;6298743;22;20264;-70
2023/01/23 05:11:17;;;;;;;5.93;3.90;;;;;;;8.63;100.00;95144.25;6298811;22;20179;-70
2023/01/23 05:13:44;;;;;;;8.90;4.63;;;;;;;8.62;100.00;95140.88;6299286;22;20176;-70
2023/01/23 05:16:10;;;;;;;7.47;3.80;;;;;;;8.62;100.00;95132.28;6301220;22;20175;-70
2023/01/23 05:18:37;;;;;;;7.53;4.07;;;;;;;8.62;100.00;95143.47;6299258;22;20213;-69
2023/01/23 05:21:04;;;;;;;10.40;4.10;;;;;;;8.68;100.00;95139.28;6299831;22;20164;-76
2023/01/23 05:23:32;;;;;;;7.00;3.70;;;;;;;8.71;100.00;95163.03;6301234;22;20229;-70
2023/01/23 05:25:59;;;;;;;5.53;3.37;;;;;;;8.74;100.00;95147.09;6299768;22;20171;-70
2023/01/23 05:28:27;;;;;;;5.60;3.73;;;;;;;8.68;100.00;95167.78;6298871;22;20192;-70
2023/01/23 05:30:54;;;;;;;6.03;3.87;;;;;;;8.62;100.00;95177.13;6297443;22;20293;-73
2023/01/23 05:33:21;;;;;;;6.90;5.33;;;;;;;8.62;100.00;95184.91;6296181;22;20168;-74
2023/01/23 05:35:47;;;;;;;7.50;4.87;;;;;;;8.62;100.00;95195.28;6298503;22;20701;-73
2023/01/23 05:38:14;;;;;;;5.37;3.70;;;;;;;8.51;100.00;95172.50;6300829;22;20257;-74
2023/01/23 05:40:41;;;;;;;6.17;3.90;;;;;;;8.64;100.00;95189.88;6299078;22;20198;-73
2023/01/23 05:43:08;;;;;;;5.83;3.43;;;;;;;8.65;100.00;95192.31;6298710;22;20172;-70
2023/01/23 05:45:36;;;;;;;6.83;3.57;;;;;;;8.71;100.00;95193.31;6301729;22;20230;-74
2023/01/23 05:48:03;;;;;;;5.53;3.90;;;;;;;8.80;100.00;95185.16;6298588;22;20188;-73
2023/01/23 05:50:30;;;;;;;6.73;3.60;;;;;;;8.80;100.00;95184.41;6299633;22;20168;-74
2023/01/23 05:52:57;;;;;;;5.67;3.80;;;;;;;8.80;100.00;95187.75;6301175;22;20164;-74
2023/01/23 05:55:24;;;;;;;6.67;3.50;;;;;;;8.78;100.00;95183.75;6299207;22;20478;-74
2023/01/23 05:57:51;;;;;;;5.40;3.23;;;;;;;8.76;100.00;95185.75;6299084;22;20237;-74
2023/01/23 06:00:18;;;;;;;6.07;3.60;;;;;;;8.74;100.00;95185.97;6300824;22;20172;-71
2023/01/23 06:02:47;;;;;;;4.60;3.20;;;;;;;8.69;100.00;95201.28;6298852;22;20277;-72
2023/01/23 06:05:14;;;;;;;4.80;3.30;;;;;;;8.78;100.00;95194.94;6300009;22;20202;-72
2023/01/23 06:07:40;;;;;;;5.10;3.40;;;;;;;8.68;100.00;95194.50;6300674;22;20195;-75
2023/01/23 06:10:08;;;;;;;5.70;3.77;;;;;;;8.68;100.00;95196.28;6299160;22;20667;-75
2023/01/23 06:12:35;;;;;;;7.93;3.30;;;;;;;8.66;100.00;95204.25;6298950;22;20180;-75
2023/01/23 06:15:02;;;;;;;4.97;3.40;;;;;;;8.64;100.00;95211.41;6300905;22;20179;-71
2023/01/23 06:17:29;;;;;;;7.10;3.67;;;;;;;8.64;100.00;95206.25;6299259;22;20192;-71
2023/01/23 06:19:57;;;;;;;7.10;3.80;;;;;;;8.69;100.00;95209.03;6298800;22;20550;-75
2023/01/23 06:22:24;;;;;;;4.03;3.30;;;;;;;8.61;100.00;95211.00;6299177;22;20172;-74
2023/01/23 06:24:52;;;;;;;5.23;3.70;;;;;;;8.59;100.00;95218.97;6299308;22;20176;-74
2023/01/23 06:27:19;;;;;;;6.70;3.87;;;;;;;8.67;100.00;95221.41;6298240;22;20724;-75
2023/01/23 06:29:45;;;;;;;5.53;3.93;;;;;;;8.66;100.00;95224.97;6300379;22;20248;-75
2023/01/23 06:32:13;;;;;;;7.97;4.27;;;;;;;8.60;100.00;95209.41;6299809;22;20610;-75
2023/01/23 06:34:40;;;;;;;6.70;4.17;;;;;;;8.63;100.00;95215.00;6299089;22;20180;-75
2023/01/23 06:37:08;;;;;;;6.57;4.20;;;;;;;8.75;100.00;95216.06;6299492;22;20179;-74
2023/01/23 06:39:34;;;;;;;7.00;4.10;;;;;;;8.81;100.00;95215.28;6299985;22;20822;-74
2023/01/23 06:42:01;;;;;;;8.40;4.23;;;;;;;8.68;100.00;95210.06;6297096;22;20623;-76
2023/01/23 06:44:28;;;;;;;7.07;4.33;;;;;;;8.64;100.00;95203.66;6298663;22;20262;-74
2023/01/23 06:46:55;;;;;;;6.90;4.23;;;;;;;8.70;100.00;95213.25;6299585;22;20187;-74
2023/01/23 06:49:22;;;;;;;9.47;4.80;;;;;;;8.67;100.00;95218.00;6298820;22;20211;-74
2023/01/23 06:51:49;;;;;;;9.60;5.13;;;;;;;8.63;100.00;95217.59;6299329;22;20183;-74
2023/01/23 06:54:17;;;;;;;9.67;5.40;;;;;;;8.67;100.00;95218.00;6295138;22;20237;-74
2023/01/23 06:56:44;;;;;;;7.90;4.83;;;;;;;8.69;100.00;95216.81;6298007;22;20176;-74
2023/01/23 06:59:11;;;;;;;9.93;5.57;;;;;;;8.69;100.00;95234.16;6299137;22;20225;-71
2023/01/23 07:01:37;;;;;;;10.83;6.43;;;;;;;8.66;100.00;95239.75;6299680;22;20174;-70
2023/01/23 07:04:04;;;;;;;11.87;6.50;;;;;;;8.64;100.00;95254.66;6298048;22;20183;-71
2023/01/23 07:06:31;;;;;;;10.20;6.80;;;;;;;8.57;100.00;95238.28;6299682;22;20172;-71
2023/01/23 07:08:58;;;;;;;12.40;7.20;;;;;;;8.65;100.00;95258.84;6298691;22;20195;-71
2023/01/23 07:11:26;;;;;;;11.47;7.70;;;;;;;8.53;100.00;95267.16;6298666;22;20164;-70
2023/01/23 07:13:53;;;;;;;14.50;7.70;;;;;;;8.50;100.00;95266.75;6299204;22;20186;-72
2023/01/23 07:16:20;;;;;;;10.70;7.23;;;;;;;8.48;100.00;95259.13;6299623;22;20199;-71
2023/01/23 07:18:47;;;;;;;10.80;7.00;;;;;;;8.33;100.00;95250.69;6297910;22;20157;-71
2023/01/23 07:21:13;;;;;;;12.37;7.30;;;;;;;8.35;100.00;95258.25;6298354;22;20172;-70
2023/01/23 07:23:40;;;;;;;11.30;7.07;;;;;;;8.40;100.00;95268.84;6297767;22;20607;-71
2023/01/23 07:26:08;;;;;;;12.53;7.60;;;;;;;8.43;100.00;95271.06;6295993;22;20168;-71
2023/01/23 07:28:37;;;;;;;11.23;7.47;;;;;;;8.41;100.00;95270.47;6298651;22;20192;-71
2023/01/23 07:31:05;;;;;;;12.20;7.33;;;;;;;8.36;100.00;95270.22;6297995;22;20168;-70
2023/01/23 07:33:32;;;;;;;12.30;7.20;;;;;;;8.36;100.00;95276.22;6294305;22;20160;-71
2023/01/23 07:35:59;;;;;;;11.30;7.03;;;;;;;8.49;100.00;95285.84;6297943;22;20172;-70
2023/01/23 07:38:25;;;;;;;10.60;7.43;;;;;;;8.34;100.00;95280.00;6297906;22;20511;-71
2023/01/23 07:40:53;;;;;;;13.13;8.63;;;;;;;8.28;100.00;95288.50;6297542;22;20172;-71
2023/01/23 07:43:20;;;;;;;16.57;8.33;;;;;;;8.26;100.00;95278.28;6297819;22;20509;-71
2023/01/23 07:45:49;;;;;;;19.43;8.87;;;;;;;8.24;100.00;95289.81;6298681;22;20197;-71
2023/01/23 07:48:16;;;;;;;16.70;8.33;;;;;;;8.34;100.00;95287.75;6296949;22;20242;-73
2023/01/23 07:50:43;;;;;;;15.10;8.90;;;;;;;8.35;100.00;95284.16;6298584;22;20172;-74
2023/01/23 07:53:09;;;;;;;18.17;9.00;;;;;;;8.28;100.00;95283.31;6299428;22;20175;-76
2023/01/23 07:55:38;;;;;;;15.40;8.47;;;;;;;8.22;100.00;95289.22;6297283;22;20168;-76
2023/01/23 07:58:05;;;;;;;17.70;9.17;;;;;;;8.20;100.00;95291.19;6297669;22;20172;-76
2023/01/23 08:00:32;;;;;;;17.60;8.50;;;;;;;8.22;100.00;95292.63;6299468;22;20233;-76
2023/01/23 08:03:00;;;;;;;18.07;9.17;;;;;;;8.19;100.00;95303.34;6297153;22;20227;-75
2023/01/23 08:05:27;;;;;;;14.87;9.00;;;;;;;8.12;100.00;95296.50;6297215;22;20188;-76
2023/01/23 08:07:57;;;;;;;15.30;8.67;;;;;;;8.18;100.00;95303.50;6299238;22;20179;-75
2023/01/23 08:10:23;;;;;;;14.47;8.10;;;;;;;8.20;100.00;95307.50;6296803;22;20515;-76
2023/01/23 08:12:50;;;;;;;12.67;7.80;;;;;;;8.18;100.00;95306.91;6296308;22;20550;-76
2023/01/23 08:15:17;;;;;;;12.60;8.43;;;;;;;8.20;100.00;95306.72;6298666;22;20178;-76
2023/01/23 08:17:44;;;;;;;17.57;8.83;;;;;;;8.22;100.00;95302.97;6297818;22;20206;-76
2023/01/23 08:20:13;;;;;;;11.40;7.80;;;;;;;8.18;100.00;95308.69;6297138;22;20168;-77
2023/01/23 08:22:40;;;;;;;20.30;8.23;;;;;;;8.31;100.00;95324.38;6299524;22;20168;-75
2023/01/23 08:25:08;;;;;;;11.37;7.20;;;;;;;8.26;100.00;95314.53;6296901;22;20168;-76
2023/01/23 08:27:35;;;;;;;11.53;6.63;;;;;;;8.25;100.00;95340.63;6297662;22;20269;-73
2023/01/23 08:30:02;;;;;;;10.20;6.57;;;;;;;8.30;100.00;95341.69;6299200;22;20667;-73
2023/01/23 08:32:29;;;;;;;12.80;7.03;;;;;;;8.26;100.00;95330.06;6296686;22;20342;-76
2023/01/23 08:34:56;;;;;;;10.40;6.47;;;;;;;8.27;100.00;95336.06;6298161;22;20176;-75
2023/01/23 08:37:24;;;;;;;11.27;6.57;;;;;;;8.21;100.00;95347.97;6300253;22;20170;-78
2023/01/23 08:39:51;;;;;;;11.03;6.33;;;;;;;8.20;100.00;95333.41;6299641;22;20491;-74
2023/01/23 08:42:21;;;;;;;10.33;6.30;;;;;;;8.22;100.00;95335.81;6296276;22;20184;-75
2023/01/23 08:44:47;;;;;;;13.37;6.20;;;;;;;8.25;100.00;95333.66;6299313;22;20635;-76
2023/01/23 08:47:15;;;;;;;8.97;5.67;;;;;;;8.16;100.00;95329.59;6297894;22;20199;-76
2023/01/23 08:49:42;;;;;;;9.87;5.90;;;;;;;8.20;100.00;95332.59;6297422;22;20195;-76
2023/01/23 08:52:09;;;;;;;11.73;5.83;;;;;;;8.10;100.00;95339.91;6298329;22;20172;-76
2023/01/23 08:54:37;;;;;;;11.83;6.03;;;;;;;8.12;100.00;95335.31;6297946;22;20176;-76
2023/01/23 08:57:04;;;;;;;10.37;5.83;;;;;;;8.13;100.00;95347.28;6296363;22;20798;-74
2023/01/23 08:59:31;;;;;;;10.30;5.80;;;;;;;8.08;100.00;95352.22;6298516;22;20218;-74
2023/01/23 09:01:58;;;;;;;10.83;6.00;;;;;;;8.02;100.00;95343.41;6296167;22;20221;-74
2023/01/23 09:04:26;;;;;;;10.17;5.23;;;;;;;8.06;100.00;95351.59;6295670;22;20179;-73
2023/01/23 09:06:52;;;;;;;11.77;5.63;;;;;;;8.07;100.00;95337.66;6297082;22;20894;-74
2023/01/23 09:09:19;;;;;;;12.27;6.03;;;;;;;8.06;100.00;95365.34;6296276;22;20279;-73
2023/01/23 09:11:47;;;;;;;10.60;6.00;;;;;;;8.14;100.00;95351.50;6296696;22;20276;-74
2023/01/23 09:14:14;;;;;;;11.00;5.80;;;;;;;8.26;100.00;95355.16;6299452;22;20172;-73
2023/01/23 09:16:41;;;;;;;8.97;5.90;;;;;;;8.29;100.00;95347.84;6297406;22;20235;-73
2023/01/23 09:19:09;;;;;;;8.77;5.40;;;;;;;8.26;100.00;95348.19;6296744;22;20176;-73
2023/01/23 09:21:35;;;;;;;10.77;5.27;;;;;;;8.22;100.00;95341.81;6298721;22;20635;-73
2023/01/23 09:24:02;;;;;;;9.90;5.43;;;;;;;8.22;100.00;95351.34;6297680;22;20518;-76
2023/01/23 09:26:29;;;;;;;9.43;6.67;;;;;;;8.32;100.00;95355.25;6297099;22;20179;-74
2023/01/23 09:28:57;;;;;;;11.00;5.93;;;;;;;8.23;100.00;95351.16;6298717;22;20188;-73
2023/01/23 09:31:24;;;;;;;10.13;5.07;;;;;;;8.32;100.00;95347.50;6297466;22;20195;-74
2023/01/23 09:33:51;;;;;;;7.53;4.87;;;;;;;8.48;100.00;95331.66;6295898;22;20624;-74
2023/01/23 09:36:18;;;;;;;8.73;4.97;;;;;;;8.56;100.00;95341.09;6298983;22;20168;-74
2023/01/23 09:38:45;;;;;;;9.03;5.00;;;;;;;8.65;100.00;95341.78;6298066;22;20191;-74
2023/01/23 09:41:17;;;;;;;9.57;5.03;;;;;;;8.68;100.00;95341.38;6297319;22;20213;-73
2023/01/23 09:43:53;;;;;;;8.13;5.20;;;;;;;8.66;100.00;95338.97;6296402;22;20184;-74
2023/01/23 09:46:27;;;;;;;6.07;4.23;;;;;;;8.63;100.00;95352.31;6294940;22;20157;-75
2023/01/23 09:48:59;;;;;;;7.97;4.50;;;;;;;8.53;100.00;95336.31;6297271;22;20188;-75
2023/01/23 09:51:30;;;;;;;6.30;4.97;;;;;;;8.53;100.00;95346.66;6298681;22;20246;-75
2023/01/23 09:54:02;;;;;;;9.77;4.47;;;;;;;8.47;100.00;95339.63;6297697;22;20164;-75
2023/01/23 09:56:32;;;;;;;8.37;5.00;;;;;;;8.38;100.00;95346.75;6293407;22;20183;-76
2023/01/23 09:59:06;;;;;;;7.37;4.60;;;;;;;8.43;100.00;95359.94;6299367;22;20160;-76
2023/01/23 10:01:34;;;;;;;11.50;4.60;;;;;;;8.29;100.00;95354.81;6301346;22;20630;-75
2023/01/23 10:04:02;;;;;;;7.13;4.60;;;;;;;8.36;100.00;95351.31;6298366;22;20172;-77
2023/01/23 10:06:54;;;;;;;7.40;5.07;;;;;;;8.35;100.00;95341.13;6302157;22;20179;-76
2023/01/23 10:09:43;;;;;;;9.63;4.93;;;;;;;8.38;100.00;95341.56;6300539;22;20172;-75
2023/01/23 10:12:18;;;;;;;7.53;5.20;;;;;;;8.41;100.00;95346.38;6300619;22;20156;-74
2023/01/23 10:15:29;;;;;;;10.73;6.17;;;;;;;8.38;100.00;95340.75;6299477;22;20167;-74
2023/01/23 10:21:17;;;;;;;9.23;5.83;;;;;;;8.29;100.00;95331.50;6295634;22;20168;-75
2023/01/23 10:23:53;;;;;;;8.87;5.63;;;;;;;8.24;100.00;95339.81;6300951;22;20167;-75
2023/01/23 10:26:23;;;;;;;13.97;7.03;;;;;;;8.24;100.00;95336.44;6298291;22;20271;-74
2023/01/23 10:28:53;;;;;;;8.83;5.93;;;;;;;8.18;100.00;95335.38;6296512;22;20168;-75
2023/01/23 10:31:32;;;;;;;10.83;5.77;;;;;;;8.13;100.00;95337.75;6300488;22;20161;-75
2023/01/23 10:34:11;;;;;;;10.30;5.90;;;;;;;8.11;100.00;95342.28;6297257;22;20156;-75
2023/01/23 10:36:45;;;;;;;10.20;6.20;;;;;;;8.08;100.00;95347.06;6299423;22;20190;-74
2023/01/23 10:39:16;;;;;;;8.43;5.90;;;;;;;8.11;100.00;95344.09;6300047;22;20156;-73
2023/01/23 10:41:43;;;;;;;9.20;5.93;;;;;;;7.87;100.00;95319.38;6300402;22;20257;-73
2023/01/23 10:44:14;;;;;;;9.30;6.50;;;;;;;7.97;100.00;95343.16;6298081;22;20188;-73
2023/01/23 10:46:47;;;;;;;10.87;6.47;;;;;;;8.05;100.00;95342.25;6299288;22;20624;-73
2023/01/23 10:49:31;;;;;;;9.63;6.07;;;;;;;7.99;100.00;95334.22;6299573;22;20270;-73
2023/01/23 10:51:58;;;;;;;12.20;6.63;;;;;;;7.89;100.00;95335.50;6298458;22;20499;-76
2023/01/23 10:54:28;;;;;;;10.87;7.00;;;;;;;7.85;100.00;95335.06;6298316;22;20183;-74
2023/01/23 10:56:58;;;;;;;10.20;6.90;;;;;;;7.95;100.00;95337.38;6301059;22;20171;-73
2023/01/23 10:59:31;;;;;;;9.77;6.47;;;;;;;8.00;100.00;95329.84;6298289;22;20168;-73
2023/01/23 11:02:02;;;;;;;13.40;7.00;;;;;;;7.98;100.00;95335.22;6298938;22;20231;-72
2023/01/23 11:04:35;;;;;;;11.17;6.93;;;;;;;7.96;100.00;95333.81;6300662;22;20159;-72
2023/01/23 11:07:07;;;;;;;11.33;7.23;;;;;;;7.86;100.00;95330.69;6298316;22;20608;-72
2023/01/23 11:09:49;;;;;;;15.37;8.20;;;;;;;7.90;100.00;95340.53;6299306;22;20263;-72
2023/01/23 11:12:19;;;;;;;13.20;7.70;;;;;;;7.91;100.00;95336.13;6297053;22;20264;-72
2023/01/23 11:14:46;;;;;;;12.23;8.00;;;;;;;7.84;100.00;95332.69;6298205;22;20176;-72
2023/01/23 11:17:20;;;;;;;13.47;8.63;;;;;;;7.88;100.00;95333.91;6295879;22;20277;-73
2023/01/23 11:19:50;;;;;;;14.33;8.93;;;;;;;7.86;100.00;95325.53;6296622;22;20156;-73
2023/01/23 11:22:31;;;;;;;15.17;9.50;;;;;;;7.93;100.00;95332.38;6299483;22;20157;-72
2023/01/23 11:25:25;;;;;;;12.43;8.37;;;;;;;7.97;100.00;95333.59;6297348;22;20152;-73
2023/01/23 11:27:58;;;;;;;12.47;8.70;;;;;;;7.86;100.00;95333.28;6297199;22;20168;-73
2023/01/23 11:30:43;;;;;;;17.87;9.07;;;;;;;7.86;100.00;95328.91;6299245;22;20264;-74
2023/01/23 11:33:14;;;;;;;15.87;8.53;;;;;;;7.81;100.00;95333.03;6299231;22;20157;-74
2023/01/23 11:36:06;;;;;;;13.63;8.03;;;;;;;7.72;100.00;95322.00;6298926;22;20749;-74
2023/01/23 11:38:45;;;;;;;11.80;7.77;;;;;;;7.69;100.00;95327.56;6283517;22;20931;-72
2023/01/23 11:41:13;;;;;;;11.97;7.60;;;;;;;7.68;100.00;95318.19;6299365;22;20162;-72
2023/01/23 11:43:43;;;;;;;13.50;8.00;;;;;;;7.84;100.00;95336.06;6296921;22;20707;-73
2023/01/23 11:46:43;;;;;;;12.60;8.07;;;;;;;7.80;100.00;95332.25;6298266;22;20157;-73